Plasencia, Spain
Current Conditions -  °F | °C
As of 1:00 PM on Sunday 21 Dec 2014 (Local Time) from LESA Reporting Station
Overcast Overcast  
Wind Chill: 37°   Ceiling: 400
Heat Index: 41°   Visibility: 4mi
Dew Point: 41°   Wind: 6mph
Humidity: 100%   Direction: 50°NE
Pressure: 30.53"   Gusts: NA
Location:  40.03°N, 6.08°W
Report Text: LESA 211200Z 05005KT 020V090 7000 OVC004 05/05 Q1034
Loading
Personal Weather Stations






























Interactive Weather Map New forecast layout! Learn more

10-Day Weather Forecast

Advertisements
Track Severe Weather on mobile